Time;durP1;ratioP1;P1;durP2;ratioP2;P2;SDS_P1;SDS_P2;PMS_P1;PMS_P2;Temp;Humidity;BMP_temperature;BMP_pressure;BME280_temperature;BME280_humidity;BME280_pressure;Samples;Min_cycle;Max_cycle;Signal;HPM_P1;HPM_P2
2023/01/24 00:00:24;;;;;;;61.90;31.30;;;;;;;2.22;92.05;102722.58;107549;1257;94367;-59
2023/01/24 00:03:19;;;;;;;57.80;30.00;;;;;;;2.21;92.01;102722.79;107483;1253;79536;-59
2023/01/24 00:05:50;;;;;;;;;;;;;;;2.19;91.97;102722.56;107551;1254;82607;-56
2023/01/24 00:08:22;;;;;;;61.40;29.10;;;;;;;2.14;91.85;102722.48;107530;1253;98846;-55
2023/01/24 00:11:01;;;;;;;58.40;29.50;;;;;;;2.10;91.81;102723.18;107476;1253;87227;-55
2023/01/24 00:13:33;;;;;;;63.00;28.80;;;;;;;2.04;91.94;102724.55;107430;1253;94642;-55
2023/01/24 00:16:08;;;;;;;61.40;29.30;;;;;;;2.06;92.12;102725.75;107440;1253;78590;-55
2023/01/24 00:18:50;;;;;;;59.40;28.30;;;;;;;2.11;92.02;102722.05;107507;1253;81320;-54
2023/01/24 00:21:28;;;;;;;60.70;28.20;;;;;;;2.14;92.03;102722.60;107475;1257;98252;-59
2023/01/24 00:24:05;;;;;;;60.70;29.30;;;;;;;2.19;92.07;102721.13;107470;1253;88008;-58
2023/01/24 00:26:40;;;;;;;60.10;29.40;;;;;;;2.18;92.04;102720.13;107464;1253;95475;-55
2023/01/24 00:29:18;;;;;;;66.70;30.00;;;;;;;2.19;92.13;102715.08;107455;1254;80906;-56
2023/01/24 00:31:54;;;;;;;62.60;30.70;;;;;;;2.21;92.02;102715.34;107508;1253;82492;-57
2023/01/24 00:34:25;;;;;;;66.10;31.40;;;;;;;2.20;92.01;102715.02;107518;1253;98646;-58
2023/01/24 00:37:00;;;;;;;58.80;29.60;;;;;;;2.19;92.10;102711.49;107498;1254;87609;-55
2023/01/24 00:39:34;;;;;;;58.40;29.20;;;;;;;2.19;92.20;102707.42;107525;1253;94274;-55
2023/01/24 00:42:11;;;;;;;66.50;30.40;;;;;;;2.20;92.08;102707.01;107469;1253;80450;-58
2023/01/24 00:44:48;;;;;;;62.60;30.10;;;;;;;2.14;92.08;102709.85;107506;1253;83106;-55
2023/01/24 00:47:32;;;;;;;60.10;30.00;;;;;;;2.10;92.08;102710.20;107530;1253;99268;-55
2023/01/24 00:50:11;;;;;;;65.30;29.10;;;;;;;2.15;92.01;102710.88;107542;1253;88760;-57
2023/01/24 00:52:47;;;;;;;60.60;28.70;;;;;;;2.13;92.12;102712.21;107516;1253;94773;-58
2023/01/24 00:55:24;;;;;;;61.60;29.90;;;;;;;2.10;92.10;102710.94;107492;1253;79312;-54
2023/01/24 00:58:07;;;;;;;61.50;29.10;;;;;;;2.12;92.23;102715.65;107529;1253;82067;-55
2023/01/24 01:00:41;;;;;;;63.90;29.00;;;;;;;2.10;92.39;102716.79;107433;1256;98443;-58
2023/01/24 01:03:19;;;;;;;60.80;29.50;;;;;;;2.17;92.18;102719.27;107487;1253;88112;-58
2023/01/24 01:05:59;;;;;;;60.50;29.30;;;;;;;2.21;92.11;102715.17;107457;1253;93325;-53
2023/01/24 01:08:35;;;;;;;60.90;29.20;;;;;;;2.24;92.27;102719.45;107495;1253;78498;-55
2023/01/24 01:11:08;;;;;;;65.60;29.80;;;;;;;2.27;92.08;102713.60;107485;1253;83590;-59
2023/01/24 01:13:43;;;;;;;62.00;29.70;;;;;;;2.26;92.13;102719.16;107478;1257;97747;-58
2023/01/24 01:16:21;;;;;;;60.00;28.60;;;;;;;2.20;92.03;102714.51;107386;1253;87730;-57
2023/01/24 01:19:00;;;;;;;63.10;29.70;;;;;;;2.17;92.17;102713.39;107455;1253;94937;-57
2023/01/24 01:21:44;;;;;;;62.40;29.90;;;;;;;2.15;92.25;102714.77;107476;1253;78031;-57
2023/01/24 01:24:17;;;;;;;59.40;29.90;;;;;;;2.10;92.17;102717.88;107488;1253;81948;-57
2023/01/24 01:26:54;;;;;;;64.10;29.60;;;;;;;2.11;92.26;102719.25;107481;1253;99169;-55
2023/01/24 01:29:30;;;;;;;51.80;28.40;;;;;;;2.12;92.15;102718.65;107460;1253;88635;-55
2023/01/24 01:32:06;;;;;;;58.60;28.70;;;;;;;2.15;92.19;102717.59;107483;1253;93772;-56
2023/01/24 01:34:39;;;;;;;61.40;28.10;;;;;;;2.15;92.12;102716.91;107541;1255;77937;-54
2023/01/24 01:37:18;;;;;;;63.50;29.70;;;;;;;2.13;92.26;102717.88;107503;1256;82947;-55
2023/01/24 01:40:02;;;;;;;63.10;28.70;;;;;;;2.09;92.32;102717.73;107543;1253;97174;-58
2023/01/24 01:42:53;;;;;;;56.10;28.80;;;;;;;2.13;92.22;102717.90;107505;1253;87529;-58
2023/01/24 01:45:41;;;;;;;67.30;30.20;;;;;;;2.18;92.31;102713.70;107514;1253;95653;-55
2023/01/24 01:48:34;;;;;;;58.50;28.00;;;;;;;2.13;92.16;102715.38;107512;1253;78651;-55
2023/01/24 01:51:23;;;;;;;61.50;30.70;;;;;;;2.10;92.27;102716.79;107480;1256;82589;-60
2023/01/24 01:54:00;;;;;;;61.70;29.70;;;;;;;2.11;92.13;102715.51;107486;1253;100193;-58
2023/01/24 01:56:41;;;;;;;59.00;28.40;;;;;;;2.09;92.27;102715.80;107492;1253;89541;-59
2023/01/24 01:59:22;;;;;;;59.50;30.30;;;;;;;2.06;92.35;102714.52;107458;1253;94644;-59
2023/01/24 02:02:00;;;;;;;62.10;27.60;;;;;;;2.08;92.25;102713.15;107445;1257;81094;-58
2023/01/24 02:04:42;;;;;;;58.90;28.60;;;;;;;2.09;92.54;102707.59;107469;1254;82711;-57
2023/01/24 02:07:23;;;;;;;61.50;28.80;;;;;;;2.10;92.29;102705.92;107437;1253;100381;-57
2023/01/24 02:10:03;;;;;;;60.30;27.10;;;;;;;2.12;92.45;102703.73;107484;1257;86971;-57
2023/01/24 02:12:47;;;;;;;57.10;28.00;;;;;;;2.20;92.35;102702.05;107434;1253;93062;-57
2023/01/24 02:18:22;;;;;;;68.30;30.50;;;;;;;2.18;92.53;102699.12;107495;1253;82372;-57
2023/01/24 02:21:02;;;;;;;64.70;29.10;;;;;;;2.25;92.41;102696.61;107474;1253;100085;-58
2023/01/24 02:23:50;;;;;;;62.50;30.00;;;;;;;2.25;92.40;102693.77;107438;1253;89774;-57
2023/01/24 02:26:24;;;;;;;61.00;31.20;;;;;;;2.22;92.28;102687.90;107551;1253;93445;-56
2023/01/24 02:29:04;;;;;;;62.80;28.90;;;;;;;2.17;92.19;102683.89;107557;1253;80706;-56
2023/01/24 02:31:57;;;;;;;60.30;28.40;;;;;;;2.15;92.38;102684.38;107536;1253;81543;-56
2023/01/24 02:34:33;;;;;;;57.50;27.70;;;;;;;2.16;92.22;102684.86;107536;1254;99688;-55
2023/01/24 02:37:14;;;;;;;61.80;30.10;;;;;;;2.18;92.35;102687.92;107464;1253;87508;-55
2023/01/24 02:39:58;;;;;;;62.70;29.50;;;;;;;2.20;92.18;102686.40;107490;1253;94324;-57
2023/01/24 02:42:33;;;;;;;57.10;28.20;;;;;;;2.20;92.28;102683.23;107468;1253;80721;-58
2023/01/24 02:45:16;;;;;;;57.90;29.10;;;;;;;2.22;92.31;102684.73;107518;1253;82993;-56
2023/01/24 02:47:57;;;;;;;54.80;28.80;;;;;;;2.25;92.41;102687.94;107468;1253;99405;-55
2023/01/24 02:53:31;;;;;;;56.40;27.00;;;;;;;2.20;92.52;102690.13;107468;1256;95614;-55
2023/01/24 02:58:59;;;;;;;61.20;28.50;;;;;;;2.20;92.49;102690.48;107460;1253;83122;-57
2023/01/24 03:01:40;;;;;;;61.60;28.30;;;;;;;2.23;92.52;102696.39;107469;1253;98369;-58
2023/01/24 03:04:19;;;;;;;58.60;28.80;;;;;;;2.24;92.42;102698.98;107459;1253;88883;-58
2023/01/24 03:07:00;;;;;;;56.00;27.50;;;;;;;2.24;92.43;102700.77;107490;1257;94996;-57
2023/01/24 03:09:35;;;;;;;53.50;26.00;;;;;;;2.25;92.43;102703.19;107486;1253;81425;-57
2023/01/24 03:35:36;;;;;;;60.20;27.10;;;;;;;2.17;92.43;102700.77;107522;1253;93969;-57
2023/01/24 03:41:06;;;;;;;56.00;27.40;;;;;;;2.18;92.62;102706.25;107434;1253;82907;-59
2023/01/24 03:43:40;;;;;;;57.30;26.50;;;;;;;2.19;92.68;102704.97;107473;1253;99902;-58
2023/01/24 03:46:14;;;;;;;52.80;26.50;;;;;;;2.24;92.60;102703.80;107113;1253;491917;-55
2023/01/24 03:48:51;;;;;;;55.40;27.90;;;;;;;2.21;92.66;102701.13;107432;1253;95946;-56
2023/01/24 03:54:19;;;;;;;56.50;27.80;;;;;;;2.27;92.66;102704.52;107466;1253;83447;-56
2023/01/24 03:57:02;;;;;;;51.50;26.90;;;;;;;2.28;92.63;102702.14;107494;1255;98418;-58
2023/01/24 03:59:39;;;;;;;53.50;26.40;;;;;;;2.27;92.61;102703.47;107469;1253;88460;-57
2023/01/24 04:02:12;;;;;;;;;;;;;;;2.21;92.58;102704.48;107501;1253;94677;-57
2023/01/24 04:07:49;;;;;;;56.30;27.40;;;;;;;2.18;92.74;102706.27;107486;1257;83404;-56
2023/01/24 04:10:27;;;;;;;52.40;28.40;;;;;;;2.19;92.84;102712.58;107438;1257;99544;-57
2023/01/24 04:13:07;;;;;;;49.80;26.10;;;;;;;2.19;92.90;102715.42;107524;1257;89130;-58
2023/01/24 04:15:48;;;;;;;50.70;24.90;;;;;;;2.16;92.90;102719.17;107498;1253;95574;-55
2023/01/24 04:18:29;;;;;;;56.90;27.50;;;;;;;2.16;92.68;102715.27;107498;1253;81756;-55
2023/01/24 04:21:06;;;;;;;53.90;26.30;;;;;;;2.16;92.84;102715.77;107517;1253;81836;-58
2023/01/24 04:23:46;;;;;;;52.20;27.30;;;;;;;2.14;92.84;102715.88;107493;1257;97653;-59
2023/01/24 04:26:29;;;;;;;47.30;26.20;;;;;;;2.21;92.74;102715.52;107535;1253;88769;-56
2023/01/24 04:29:02;;;;;;;47.00;25.10;;;;;;;2.27;92.73;102714.66;107427;1253;95087;-56
2023/01/24 04:31:45;;;;;;;46.30;23.70;;;;;;;2.25;92.78;102709.80;107459;1254;79433;-55
2023/01/24 04:34:21;;;;;;;58.30;26.80;;;;;;;2.23;92.83;102712.20;107476;1253;82368;-56
2023/01/24 04:37:00;;;;;;;49.00;26.10;;;;;;;2.25;92.77;102711.19;107486;1253;99587;-57
2023/01/24 04:39:35;;;;;;;51.10;26.80;;;;;;;2.21;92.64;102714.10;107473;1253;86749;-58
2023/01/24 04:42:09;;;;;;;53.50;28.50;;;;;;;2.15;92.71;102711.73;107469;1253;95666;-57
2023/01/24 04:44:47;;;;;;;48.40;26.40;;;;;;;2.15;92.71;102718.33;107445;1253;81968;-57
2023/01/24 04:47:21;;;;;;;48.60;27.10;;;;;;;2.14;92.95;102714.27;107544;1253;81901;-57
2023/01/24 04:49:59;;;;;;;49.30;25.10;;;;;;;2.12;92.94;102714.39;107477;1257;99624;-57
2023/01/24 04:52:35;;;;;;;53.40;25.60;;;;;;;2.13;92.88;102718.61;107524;1253;87967;-57
2023/01/24 04:55:11;;;;;;;49.30;26.10;;;;;;;2.17;92.90;102720.32;107524;1253;92268;-58
2023/01/24 04:57:47;;;;;;;49.00;25.30;;;;;;;2.20;93.13;102713.60;107602;1253;79216;-58
2023/01/24 05:00:19;;;;;;;51.70;27.20;;;;;;;2.19;93.02;102718.11;107586;1254;81755;-58
2023/01/24 05:02:53;;;;;;;46.90;25.20;;;;;;;2.15;93.01;102723.11;107555;1253;98898;-58
2023/01/24 05:05:32;;;;;;;50.30;25.80;;;;;;;2.19;92.98;102724.67;107545;1253;87765;-56
2023/01/24 05:08:06;;;;;;;47.30;24.30;;;;;;;2.19;92.93;102722.05;107546;1253;95432;-55
2023/01/24 05:10:47;;;;;;;55.90;26.90;;;;;;;2.20;92.79;102721.58;107556;1253;80246;-55
2023/01/24 05:13:23;;;;;;;42.20;23.00;;;;;;;2.21;92.96;102715.33;107529;1253;83034;-54
2023/01/24 05:16:03;;;;;;;53.60;26.60;;;;;;;2.19;92.88;102720.98;107499;1253;97735;-53
2023/01/24 05:18:38;;;;;;;49.90;25.50;;;;;;;2.14;92.89;102727.79;107484;1253;88215;-54
2023/01/24 05:21:13;;;;;;;48.70;24.90;;;;;;;2.11;92.99;102726.35;107434;1254;93931;-58
2023/01/24 05:23:51;;;;;;;50.40;25.40;;;;;;;2.09;92.98;102726.26;107481;1253;79784;-57
2023/01/24 05:26:28;;;;;;;47.40;25.20;;;;;;;2.09;93.11;102722.34;107464;1253;83202;-55
2023/01/24 05:29:03;;;;;;;50.40;26.50;;;;;;;2.11;93.09;102724.36;107509;1257;98425;-55
2023/01/24 05:31:38;;;;;;;49.10;26.80;;;;;;;2.15;93.06;102722.73;107473;1253;88400;-55
2023/01/24 05:34:13;;;;;;;47.80;24.10;;;;;;;2.20;92.74;102729.62;107454;1253;95419;-55
2023/01/24 05:36:52;;;;;;;51.40;25.70;;;;;;;2.23;92.91;102731.06;107484;1253;81139;-57
2023/01/24 05:39:29;;;;;;;46.70;25.90;;;;;;;2.23;93.01;102731.92;107384;1253;82394;-54
2023/01/24 05:42:05;;;;;;;46.70;25.30;;;;;;;2.24;93.04;102730.82;107519;1253;97420;-55
2023/01/24 05:44:44;;;;;;;47.30;24.70;;;;;;;2.22;93.02;102735.36;107539;1253;89023;-55
2023/01/24 05:47:23;;;;;;;49.10;26.10;;;;;;;2.23;93.03;102735.34;107467;1253;94150;-55
2023/01/24 05:49:57;;;;;;;44.60;24.00;;;;;;;2.26;92.98;102737.82;107497;1257;78941;-56
2023/01/24 05:52:34;;;;;;;46.50;25.10;;;;;;;2.27;92.99;102740.81;107541;1253;83094;-56
2023/01/24 05:55:07;;;;;;;50.50;26.30;;;;;;;2.24;92.95;102740.95;107567;1253;99924;-58
2023/01/24 05:57:42;;;;;;;51.90;25.50;;;;;;;2.28;92.80;102743.24;107516;1253;87819;-59
2023/01/24 06:00:16;;;;;;;46.90;24.80;;;;;;;2.26;92.85;102744.73;107549;1253;95715;-60
2023/01/24 06:02:51;;;;;;;44.20;23.60;;;;;;;2.27;92.98;102744.69;107510;1253;80542;-59
2023/01/24 06:05:29;;;;;;;;;;;;;;;2.24;93.06;102745.25;107522;1254;82233;-58
2023/01/24 06:08:06;;;;;;;47.60;24.90;;;;;;;2.24;92.97;102743.62;107370;1253;97266;-59
2023/01/24 06:10:42;;;;;;;42.20;23.90;;;;;;;2.22;92.89;102739.08;107495;1253;88432;-57
2023/01/24 06:13:13;;;;;;;47.50;25.20;;;;;;;2.23;92.87;102740.13;107357;1253;95745;-58
2023/01/24 06:15:45;;;;;;;41.80;24.10;;;;;;;2.22;93.04;102744.45;107504;1257;81455;-59
2023/01/24 06:18:19;;;;;;;47.30;24.60;;;;;;;2.24;92.94;102747.71;107501;1253;81049;-58
2023/01/24 06:20:51;;;;;;;47.90;25.20;;;;;;;2.28;93.03;102753.38;107588;1253;98812;-58
2023/01/24 06:23:29;;;;;;;50.40;26.00;;;;;;;2.31;92.93;102751.94;107448;1253;90856;-57
2023/01/24 06:26:10;;;;;;;48.80;26.90;;;;;;;2.27;92.83;102755.71;107553;1253;95090;-55
2023/01/24 06:28:45;;;;;;;47.10;23.80;;;;;;;2.29;92.77;102756.50;107414;1255;81064;-56
2023/01/24 06:31:34;;;;;;;44.00;24.90;;;;;;;2.32;92.71;102761.70;107519;1253;79550;-55
2023/01/24 06:34:38;;;;;;;46.40;25.90;;;;;;;2.31;92.83;102761.92;107397;1254;99188;-56
2023/01/24 06:37:17;;;;;;;;;;;;;;;2.26;92.90;102763.94;107512;1253;88827;-59
2023/01/24 06:39:53;;;;;;;51.20;24.20;;;;;;;2.28;92.97;102765.84;107484;1257;95369;-58
2023/01/24 06:42:28;;;;;;;52.50;25.10;;;;;;;2.27;93.05;102772.44;107507;1253;81305;-59
2023/01/24 06:45:03;;;;;;;54.00;26.10;;;;;;;2.26;93.11;102778.74;107551;1253;81909;-58
2023/01/24 06:47:34;;;;;;;51.20;26.30;;;;;;;2.30;93.23;102784.02;107577;1253;99491;-57
2023/01/24 06:50:12;;;;;;;53.60;26.70;;;;;;;2.33;93.00;102783.84;107550;1253;88916;-57
2023/01/24 06:52:49;;;;;;;51.80;26.10;;;;;;;2.31;92.99;102787.70;107541;1253;95030;-56
2023/01/24 06:55:27;;;;;;;44.70;25.80;;;;;;;2.31;93.04;102787.70;107556;1253;81144;-58
2023/01/24 06:58:06;;;;;;;53.70;26.60;;;;;;;2.34;93.03;102791.10;107529;1258;82718;-59
2023/01/24 07:00:43;;;;;;;47.80;26.70;;;;;;;2.35;92.82;102790.16;107530;1253;99911;-59
2023/01/24 07:03:18;;;;;;;48.70;26.10;;;;;;;2.34;92.88;102790.36;107528;1253;87850;-59
2023/01/24 07:05:58;;;;;;;48.90;25.50;;;;;;;2.38;92.86;102787.70;107502;1253;92811;-57
2023/01/24 07:08:35;;;;;;;48.30;25.20;;;;;;;2.41;92.89;102791.29;107486;1253;81510;-56
2023/01/24 07:11:17;;;;;;;44.60;24.90;;;;;;;2.46;92.95;102785.32;107548;1253;82297;-59
2023/01/24 07:13:58;;;;;;;52.30;26.30;;;;;;;2.48;92.83;102785.08;107511;1253;99943;-59
2023/01/24 07:16:37;;;;;;;48.10;25.80;;;;;;;2.48;92.89;102789.66;107522;1253;88416;-59
2023/01/24 07:19:17;;;;;;;51.50;26.20;;;;;;;2.50;93.06;102794.73;107509;1253;96019;-59
2023/01/24 07:21:52;;;;;;;54.10;27.70;;;;;;;2.49;92.93;102791.05;107558;1253;78094;-58
2023/01/24 07:24:27;;;;;;;54.40;28.10;;;;;;;2.51;92.92;102792.72;107540;1253;82587;-58
2023/01/24 07:27:06;;;;;;;53.60;28.10;;;;;;;2.53;92.93;102787.79;107550;1253;99552;-59
2023/01/24 07:29:50;;;;;;;52.50;25.90;;;;;;;2.51;93.17;102783.46;107564;1253;88940;-57
2023/01/24 07:32:30;;;;;;;48.50;25.50;;;;;;;2.56;93.09;102784.30;107559;1257;93113;-57
2023/01/24 07:35:07;;;;;;;43.30;24.60;;;;;;;2.54;93.02;102781.50;107549;1253;81899;-59
2023/01/24 07:37:39;;;;;;;45.30;25.40;;;;;;;2.54;92.98;102783.64;107583;1253;83495;-59
2023/01/24 07:40:13;;;;;;;46.40;25.50;;;;;;;2.55;92.95;102784.85;107539;1257;96545;-58
2023/01/24 07:42:49;;;;;;;49.10;26.40;;;;;;;2.55;93.06;102784.50;107530;1259;89085;-57
2023/01/24 07:45:21;;;;;;;46.40;24.10;;;;;;;2.57;93.13;102781.90;107546;1253;92834;-56
2023/01/24 07:47:57;;;;;;;49.70;26.00;;;;;;;2.63;93.07;102785.12;107532;1253;79444;-57
2023/01/24 07:50:35;;;;;;;46.70;24.80;;;;;;;2.68;93.07;102787.91;107532;1253;81635;-56
2023/01/24 07:53:11;;;;;;;54.90;27.60;;;;;;;2.70;92.92;102785.45;107503;1259;99259;-58
2023/01/24 07:55:42;;;;;;;49.00;26.90;;;;;;;2.72;92.89;102789.65;107514;1253;88333;-57
2023/01/24 07:58:14;;;;;;;54.30;28.70;;;;;;;2.74;92.85;102791.85;107528;1254;95126;-57
2023/01/24 08:00:50;;;;;;;50.50;27.40;;;;;;;2.77;92.73;102793.80;107511;1253;79342;-58
2023/01/24 08:03:29;;;;;;;52.50;27.20;;;;;;;2.76;92.68;102795.83;107510;1253;81883;-56
2023/01/24 08:06:08;;;;;;;53.10;26.10;;;;;;;2.82;92.60;102799.45;107498;1259;98600;-54
2023/01/24 08:08:42;;;;;;;52.50;26.40;;;;;;;2.86;92.62;102794.93;107491;1253;89137;-55
2023/01/24 08:11:18;;;;;;;46.30;24.70;;;;;;;2.91;92.67;102797.16;107479;1253;95849;-56
2023/01/24 08:13:58;;;;;;;45.00;24.80;;;;;;;2.89;92.69;102800.48;107511;1254;78135;-55
2023/01/24 08:16:36;;;;;;;45.20;24.70;;;;;;;2.85;92.72;102795.36;107518;1253;82295;-55
2023/01/24 08:19:07;;;;;;;50.70;26.30;;;;;;;2.83;93.02;102800.23;107481;1253;99443;-55
2023/01/24 08:21:39;;;;;;;47.70;25.60;;;;;;;2.87;92.86;102805.18;107507;1254;88115;-57
2023/01/24 08:24:12;;;;;;;44.70;24.90;;;;;;;2.91;92.97;102802.31;107514;1254;92238;-57
2023/01/24 08:26:50;;;;;;;47.10;24.90;;;;;;;2.91;92.71;102807.50;107523;1253;81090;-54
2023/01/24 08:29:33;;;;;;;48.00;24.50;;;;;;;2.88;92.67;102808.88;107355;1253;83282;-54
2023/01/24 08:32:06;;;;;;;45.00;24.80;;;;;;;2.89;92.85;102803.84;107564;1253;99708;-56
2023/01/24 08:34:40;;;;;;;49.90;25.40;;;;;;;2.94;92.94;102800.02;107530;1253;87886;-55
2023/01/24 08:37:19;;;;;;;44.20;24.80;;;;;;;2.95;92.77;102801.02;107538;1253;94896;-56
2023/01/24 08:39:57;;;;;;;46.90;24.80;;;;;;;2.99;92.67;102799.73;107568;1253;79872;-59
2023/01/24 08:42:38;;;;;;;42.60;24.00;;;;;;;3.02;92.72;102799.63;107533;1253;81541;-57
2023/01/24 08:45:17;;;;;;;43.80;25.10;;;;;;;3.01;92.74;102802.31;107531;1257;99179;-55
2023/01/24 08:47:56;;;;;;;50.20;28.10;;;;;;;3.05;92.74;102804.07;107357;1253;89684;-57
2023/01/24 08:50:34;;;;;;;49.70;29.70;;;;;;;3.06;92.79;102808.33;107534;1253;95629;-57
2023/01/24 08:53:14;;;;;;;49.40;27.60;;;;;;;3.01;92.76;102811.06;107502;1253;81007;-58
2023/01/24 08:55:49;;;;;;;55.00;31.40;;;;;;;3.03;92.77;102813.79;107530;1253;82057;-58
2023/01/24 08:58:26;;;;;;;54.50;30.50;;;;;;;3.02;92.82;102814.23;107485;1253;99633;-57
2023/01/24 09:01:10;;;;;;;46.80;27.00;;;;;;;3.03;92.71;102818.77;107558;1253;88241;-56
2023/01/24 09:03:48;;;;;;;51.60;28.50;;;;;;;3.04;92.76;102817.29;107487;1253;94514;-55
2023/01/24 09:06:29;;;;;;;51.60;31.00;;;;;;;3.06;92.77;102817.05;107523;1253;79711;-55
2023/01/24 09:09:07;;;;;;;45.50;28.50;;;;;;;3.11;92.72;102812.29;107396;1253;82685;-56
2023/01/24 09:11:45;;;;;;;46.70;26.70;;;;;;;3.16;92.67;102808.96;107525;1253;100298;-57
2023/01/24 09:14:24;;;;;;;46.90;26.40;;;;;;;3.15;92.66;102804.61;107503;1253;88946;-57
2023/01/24 09:17:06;;;;;;;45.60;25.00;;;;;;;3.17;92.79;102804.88;107529;1253;94343;-55
2023/01/24 09:19:43;;;;;;;49.80;26.90;;;;;;;3.19;92.61;102806.31;107586;1253;80673;-56
2023/01/24 09:22:17;;;;;;;49.70;27.10;;;;;;;3.28;92.72;102804.95;107581;1253;83027;-57
2023/01/24 09:24:58;;;;;;;44.40;24.90;;;;;;;3.31;92.84;102798.21;107571;1254;99438;-56
2023/01/24 09:27:37;;;;;;;45.60;25.40;;;;;;;3.34;92.67;102802.33;107537;1253;89329;-54
2023/01/24 09:30:13;;;;;;;50.00;25.90;;;;;;;3.39;92.72;102803.64;107365;1253;94413;-56
2023/01/24 09:32:51;;;;;;;47.70;26.80;;;;;;;3.37;92.81;102803.52;107567;1253;79778;-55
2023/01/24 09:35:29;;;;;;;49.40;27.10;;;;;;;3.38;92.41;102798.52;107540;1253;82452;-56
2023/01/24 09:38:11;;;;;;;46.90;25.80;;;;;;;3.38;92.35;102798.68;107505;1253;98969;-55
2023/01/24 09:40:51;;;;;;;48.20;26.70;;;;;;;3.34;92.57;102799.27;107547;1254;88216;-58
2023/01/24 09:43:46;;;;;;;47.20;25.70;;;;;;;3.34;92.36;102801.23;107534;1253;95398;-58
2023/01/24 09:46:31;;;;;;;45.40;25.70;;;;;;;3.36;92.33;102797.37;107494;1253;81719;-56
2023/01/24 09:49:20;;;;;;;45.90;25.10;;;;;;;3.41;92.47;102799.07;107511;1253;82639;-53
2023/01/24 09:51:55;;;;;;;46.50;24.50;;;;;;;3.41;92.31;102799.23;107550;1253;99416;-54
2023/01/24 09:54:38;;;;;;;48.70;26.60;;;;;;;3.44;92.25;102793.91;107432;1254;88464;-55
2023/01/24 09:57:30;;;;;;;44.40;26.10;;;;;;;3.46;92.20;102800.92;107311;1259;94787;-55
2023/01/24 10:00:17;;;;;;;45.20;24.10;;;;;;;3.43;92.22;102809.81;107413;1256;78238;-55
2023/01/24 10:02:53;;;;;;;40.10;22.40;;;;;;;3.37;91.96;102810.81;107478;1258;81360;-54
2023/01/24 10:05:35;;;;;;;50.20;25.80;;;;;;;3.37;92.03;102809.80;107481;1258;97609;-55
2023/01/24 10:08:20;;;;;;;41.40;24.00;;;;;;;3.38;91.90;102809.70;107454;1256;88966;-56
2023/01/24 10:11:08;;;;;;;45.00;26.20;;;;;;;3.39;91.84;102804.50;107472;1255;93489;-57
2023/01/24 10:14:20;;;;;;;51.60;26.90;;;;;;;3.45;91.84;102802.77;107484;1255;79661;-58
2023/01/24 10:17:46;;;;;;;48.00;26.70;;;;;;;3.50;91.70;102802.80;107550;1257;82988;-56
2023/01/24 10:20:47;;;;;;;54.40;29.30;;;;;;;3.58;91.93;102799.70;107002;1259;99283;-58
2023/01/24 10:23:28;;;;;;;52.30;29.60;;;;;;;3.63;91.68;102801.02;107436;1259;89144;-58
2023/01/24 10:26:17;;;;;;;58.10;30.10;;;;;;;3.65;91.82;102797.20;107458;1257;93612;-58
2023/01/24 10:28:52;;;;;;;51.40;28.60;;;;;;;3.68;91.57;102794.12;107454;1257;78775;-57
2023/01/24 10:31:39;;;;;;;57.20;31.20;;;;;;;3.66;91.64;102797.98;107483;1257;82297;-58
2023/01/24 10:34:20;;;;;;;59.20;30.20;;;;;;;3.63;91.67;102798.70;107421;1254;98495;-59
2023/01/24 10:37:01;;;;;;;58.20;31.90;;;;;;;3.63;91.68;102799.59;107442;1254;87348;-57
2023/01/24 10:39:44;;;;;;;59.20;32.40;;;;;;;3.63;91.63;102799.60;107449;1256;95740;-56
2023/01/24 10:42:27;;;;;;;66.60;37.20;;;;;;;3.65;91.60;102800.20;107422;1257;81464;-55
2023/01/24 10:45:30;;;;;;;58.60;33.30;;;;;;;3.63;91.65;102790.53;107423;1257;81587;-57
2023/01/24 10:48:14;;;;;;;58.80;32.50;;;;;;;3.65;91.37;102786.12;107460;1254;100373;-57
2023/01/24 10:50:53;;;;;;;55.80;31.30;;;;;;;3.70;91.32;102789.77;107430;1257;87834;-57
2023/01/24 10:53:29;;;;;;;52.00;31.50;;;;;;;3.69;91.42;102785.57;107336;1257;92251;-57
2023/01/24 10:56:04;;;;;;;59.10;31.20;;;;;;;3.66;91.23;102786.24;107470;1254;78820;-57
2023/01/24 10:58:41;;;;;;;52.20;28.60;;;;;;;3.66;91.08;102781.42;107467;1257;82671;-58
2023/01/24 11:01:34;;;;;;;53.30;29.10;;;;;;;3.66;91.16;102782.88;107435;1254;98332;-57
2023/01/24 11:04:27;;;;;;;52.20;28.60;;;;;;;3.71;90.91;102776.00;107479;1256;89422;-55
2023/01/24 11:07:01;;;;;;;49.20;27.90;;;;;;;3.70;90.98;102773.56;107463;1257;95581;-57
2023/01/24 11:09:47;;;;;;;52.00;27.20;;;;;;;3.69;91.01;102776.98;107449;1259;80199;-58
2023/01/24 11:12:21;;;;;;;49.90;27.70;;;;;;;3.72;91.03;102783.57;107463;1255;81047;-55
2023/01/24 11:14:56;;;;;;;;;;;;;;;3.72;90.87;102780.73;107499;1257;99070;-55
2023/01/24 11:17:42;;;;;;;46.80;26.40;;;;;;;3.71;91.00;102776.85;107438;1259;87712;-55
2023/01/24 11:20:29;;;;;;;42.30;23.10;;;;;;;3.72;91.11;102771.65;107404;1256;94997;-58
2023/01/24 11:23:16;;;;;;;49.70;29.30;;;;;;;3.66;90.96;102771.81;107405;1255;79486;-57
2023/01/24 11:26:01;;;;;;;43.70;25.30;;;;;;;3.66;91.00;102781.27;107454;1258;81322;-54
2023/01/24 11:28:37;;;;;;;49.80;25.40;;;;;;;3.67;90.76;102778.50;107417;1255;98752;-56
2023/01/24 11:31:31;;;;;;;45.50;25.20;;;;;;;3.70;90.88;102777.81;107494;1256;88465;-58
2023/01/24 11:34:39;;;;;;;45.80;25.00;;;;;;;3.70;90.73;102774.64;107416;1257;95231;-58
2023/01/24 11:37:41;;;;;;;50.10;26.40;;;;;;;3.67;90.95;102770.34;107376;1256;79121;-56
2023/01/24 11:40:43;;;;;;;51.90;27.20;;;;;;;3.71;90.95;102766.34;107427;1254;82810;-56
2023/01/24 11:43:32;;;;;;;50.40;27.70;;;;;;;3.77;90.76;102764.94;107449;1257;99674;-56
2023/01/24 11:46:34;;;;;;;51.90;26.80;;;;;;;3.72;90.72;102760.76;107188;1257;335054;-57
2023/01/24 11:49:34;;;;;;;48.90;26.50;;;;;;;3.72;90.92;102763.08;107425;1254;94310;-58
2023/01/24 11:52:16;;;;;;;;;;;;;;;3.79;90.55;102761.27;107479;1257;80625;-58
2023/01/24 11:55:00;;;;;;;50.70;27.10;;;;;;;3.68;90.92;102762.46;107497;1258;81123;-55
2023/01/24 11:57:48;;;;;;;46.70;26.20;;;;;;;3.70;90.81;102763.94;107459;1257;98567;-55
2023/01/24 12:00:36;;;;;;;44.20;24.90;;;;;;;3.72;90.70;102758.65;107421;1258;87746;-57
2023/01/24 12:03:49;;;;;;;46.60;26.60;;;;;;;3.75;90.93;102754.52;107445;1257;94961;-57
2023/01/24 12:06:37;;;;;;;46.90;25.90;;;;;;;3.77;90.80;102743.55;107437;1257;78494;-57
2023/01/24 12:09:24;;;;;;;47.80;26.80;;;;;;;3.81;90.67;102739.96;107481;1254;82652;-57
2023/01/24 12:12:18;;;;;;;53.30;27.70;;;;;;;3.86;90.76;102739.98;107419;1254;99263;-55
2023/01/24 12:15:16;;;;;;;51.90;27.20;;;;;;;3.83;90.57;102731.94;107437;1259;87005;-56
2023/01/24 12:18:19;;;;;;;45.60;26.80;;;;;;;3.79;90.46;102732.71;107408;1254;94573;-56
2023/01/24 12:21:09;;;;;;;44.40;26.10;;;;;;;3.84;90.53;102737.59;107447;1259;79090;-58
2023/01/24 12:23:54;;;;;;;45.70;25.70;;;;;;;3.80;90.46;102735.55;107491;1255;82461;-56
2023/01/24 12:26:30;;;;;;;47.40;26.80;;;;;;;3.88;90.41;102736.49;107437;1257;97613;-56
2023/01/24 12:29:15;;;;;;;46.30;24.80;;;;;;;3.93;90.48;102730.30;107320;1259;87931;-56
2023/01/24 12:32:00;;;;;;;40.70;23.40;;;;;;;3.94;90.44;102726.14;107427;1255;95628;-57
2023/01/24 12:34:51;;;;;;;42.80;23.90;;;;;;;3.95;90.37;102718.05;107387;1254;79487;-57
2023/01/24 12:37:38;;;;;;;43.90;23.70;;;;;;;3.91;90.16;102718.29;107423;1257;82723;-54
2023/01/24 12:40:30;;;;;;;44.50;24.40;;;;;;;3.86;90.14;102715.95;107444;1259;98131;-57
2023/01/24 12:43:16;;;;;;;45.60;23.00;;;;;;;3.86;90.16;102720.54;107440;1257;88530;-57
2023/01/24 12:46:04;;;;;;;42.40;23.40;;;;;;;3.84;90.18;102722.44;107475;1258;95513;-58
2023/01/24 12:48:53;;;;;;;43.80;24.10;;;;;;;3.82;90.33;102723.14;107395;1259;80702;-57
2023/01/24 12:51:32;;;;;;;42.50;24.50;;;;;;;3.89;90.05;102717.35;107427;1254;81525;-55